sensor_id;sensor_type;location;lat;lon;timestamp;P1;durP1;ratioP1;P2;durP2;ratioP2
69188;SDS011;56302;52.322;5.926;2023-02-13T00:02:00;19.77;;;10.27;;
69188;SDS011;56302;52.322;5.926;2023-02-13T00:04:26;19.47;;;9.93;;
69188;SDS011;56302;52.322;5.926;2023-02-13T00:06:51;19.67;;;9.73;;
69188;SDS011;56302;52.322;5.926;2023-02-13T00:09:17;19.40;;;10.10;;
69188;SDS011;56302;52.322;5.926;2023-02-13T00:11:42;21.83;;;10.93;;
69188;SDS011;56302;52.322;5.926;2023-02-13T00:14:08;22.05;;;12.10;;
69188;SDS011;56302;52.322;5.926;2023-02-13T00:16:33;23.47;;;11.47;;
69188;SDS011;56302;52.322;5.926;2023-02-13T00:18:59;24.63;;;12.00;;
69188;SDS011;56302;52.322;5.926;2023-02-13T00:21:25;25.50;;;12.60;;
69188;SDS011;56302;52.322;5.926;2023-02-13T00:23:50;24.87;;;11.83;;
69188;SDS011;56302;52.322;5.926;2023-02-13T00:26:16;22.70;;;11.65;;
69188;SDS011;56302;52.322;5.926;2023-02-13T00:28:42;24.30;;;11.77;;
69188;SDS011;56302;52.322;5.926;2023-02-13T00:31:09;23.27;;;11.85;;
69188;SDS011;56302;52.322;5.926;2023-02-13T00:33:36;23.77;;;13.18;;
69188;SDS011;56302;52.322;5.926;2023-02-13T00:36:10;23.98;;;11.93;;
69188;SDS011;56302;52.322;5.926;2023-02-13T00:38:38;24.47;;;12.00;;
69188;SDS011;56302;52.322;5.926;2023-02-13T00:41:04;25.85;;;12.23;;
69188;SDS011;56302;52.322;5.926;2023-02-13T00:43:30;25.73;;;13.98;;
69188;SDS011;56302;52.322;5.926;2023-02-13T00:45:56;28.00;;;12.80;;
69188;SDS011;56302;52.322;5.926;2023-02-13T00:48:22;25.65;;;13.38;;
69188;SDS011;56302;52.322;5.926;2023-02-13T00:50:48;26.57;;;12.57;;
69188;SDS011;56302;52.322;5.926;2023-02-13T00:53:16;25.95;;;11.73;;
69188;SDS011;56302;52.322;5.926;2023-02-13T00:55:42;25.73;;;13.13;;
69188;SDS011;56302;52.322;5.926;2023-02-13T00:58:08;24.50;;;12.90;;
69188;SDS011;56302;52.322;5.926;2023-02-13T01:00:33;29.27;;;13.15;;
69188;SDS011;56302;52.322;5.926;2023-02-13T01:02:59;26.67;;;12.37;;
69188;SDS011;56302;52.322;5.926;2023-02-13T01:05:24;25.23;;;11.83;;
69188;SDS011;56302;52.322;5.926;2023-02-13T01:07:52;23.08;;;12.05;;
69188;SDS011;56302;52.322;5.926;2023-02-13T01:10:17;23.70;;;11.45;;
69188;SDS011;56302;52.322;5.926;2023-02-13T01:12:43;22.77;;;11.63;;
69188;SDS011;56302;52.322;5.926;2023-02-13T01:15:09;22.90;;;11.75;;
69188;SDS011;56302;52.322;5.926;2023-02-13T01:17:34;27.42;;;11.70;;
69188;SDS011;56302;52.322;5.926;2023-02-13T01:20:00;22.83;;;11.43;;
69188;SDS011;56302;52.322;5.926;2023-02-13T01:22:25;22.30;;;11.23;;
69188;SDS011;56302;52.322;5.926;2023-02-13T01:24:51;23.57;;;11.73;;
69188;SDS011;56302;52.322;5.926;2023-02-13T01:27:16;25.40;;;11.07;;
69188;SDS011;56302;52.322;5.926;2023-02-13T01:29:42;23.10;;;10.97;;
69188;SDS011;56302;52.322;5.926;2023-02-13T01:32:07;22.13;;;11.65;;
69188;SDS011;56302;52.322;5.926;2023-02-13T01:34:33;23.07;;;11.23;;
69188;SDS011;56302;52.322;5.926;2023-02-13T01:36:58;22.13;;;10.77;;
69188;SDS011;56302;52.322;5.926;2023-02-13T01:39:24;23.02;;;10.65;;
69188;SDS011;56302;52.322;5.926;2023-02-13T01:41:49;23.90;;;11.47;;
69188;SDS011;56302;52.322;5.926;2023-02-13T01:47:13;19.95;;;10.75;;
69188;SDS011;56302;52.322;5.926;2023-02-13T01:49:43;21.25;;;10.93;;
69188;SDS011;56302;52.322;5.926;2023-02-13T01:52:11;28.05;;;11.80;;
69188;SDS011;56302;52.322;5.926;2023-02-13T01:54:37;22.38;;;10.48;;
69188;SDS011;56302;52.322;5.926;2023-02-13T01:57:05;21.43;;;10.07;;
69188;SDS011;56302;52.322;5.926;2023-02-13T01:59:37;17.90;;;8.95;;
69188;SDS011;56302;52.322;5.926;2023-02-13T02:02:08;18.40;;;9.13;;
69188;SDS011;56302;52.322;5.926;2023-02-13T02:04:34;17.50;;;8.80;;
69188;SDS011;56302;52.322;5.926;2023-02-13T02:07:06;18.48;;;9.40;;
69188;SDS011;56302;52.322;5.926;2023-02-13T02:09:36;17.45;;;9.27;;
69188;SDS011;56302;52.322;5.926;2023-02-13T02:14:51;23.90;;;11.30;;
69188;SDS011;56302;52.322;5.926;2023-02-13T02:17:18;24.42;;;11.18;;
69188;SDS011;56302;52.322;5.926;2023-02-13T02:29:07;23.07;;;11.73;;
69188;SDS011;56302;52.322;5.926;2023-02-13T02:34:49;20.40;;;9.90;;
69188;SDS011;56302;52.322;5.926;2023-02-13T02:48:11;20.50;;;10.57;;
69188;SDS011;56302;52.322;5.926;2023-02-13T02:51:18;17.45;;;8.55;;
69188;SDS011;56302;52.322;5.926;2023-02-13T02:53:52;20.85;;;9.85;;
69188;SDS011;56302;52.322;5.926;2023-02-13T02:56:48;19.27;;;10.07;;
69188;SDS011;56302;52.322;5.926;2023-02-13T02:59:16;21.67;;;10.65;;
69188;SDS011;56302;52.322;5.926;2023-02-13T03:02:02;20.87;;;9.83;;
69188;SDS011;56302;52.322;5.926;2023-02-13T03:04:50;20.67;;;10.30;;
69188;SDS011;56302;52.322;5.926;2023-02-13T03:07:37;24.60;;;9.88;;
69188;SDS011;56302;52.322;5.926;2023-02-13T03:10:06;22.77;;;10.30;;
69188;SDS011;56302;52.322;5.926;2023-02-13T03:12:54;21.02;;;9.98;;
69188;SDS011;56302;52.322;5.926;2023-02-13T03:15:44;18.73;;;9.93;;
69188;SDS011;56302;52.322;5.926;2023-02-13T03:18:32;21.40;;;10.77;;
69188;SDS011;56302;52.322;5.926;2023-02-13T03:21:24;18.70;;;9.93;;
69188;SDS011;56302;52.322;5.926;2023-02-13T03:24:45;20.07;;;9.77;;
69188;SDS011;56302;52.322;5.926;2023-02-13T03:27:41;21.48;;;10.55;;
69188;SDS011;56302;52.322;5.926;2023-02-13T03:33:17;21.70;;;10.30;;
69188;SDS011;56302;52.322;5.926;2023-02-13T03:36:08;22.30;;;11.00;;
69188;SDS011;56302;52.322;5.926;2023-02-13T03:41:53;21.40;;;10.48;;
69188;SDS011;56302;52.322;5.926;2023-02-13T03:44:31;24.42;;;10.77;;
69188;SDS011;56302;52.322;5.926;2023-02-13T03:46:59;26.67;;;12.02;;
69188;SDS011;56302;52.322;5.926;2023-02-13T03:49:28;22.20;;;10.20;;
69188;SDS011;56302;52.322;5.926;2023-02-13T03:52:26;22.03;;;10.97;;
69188;SDS011;56302;52.322;5.926;2023-02-13T03:55:16;19.40;;;9.80;;
69188;SDS011;56302;52.322;5.926;2023-02-13T03:58:02;20.40;;;10.43;;
69188;SDS011;56302;52.322;5.926;2023-02-13T04:00:54;24.10;;;11.60;;
69188;SDS011;56302;52.322;5.926;2023-02-13T04:06:08;26.60;;;12.00;;
69188;SDS011;56302;52.322;5.926;2023-02-13T04:08:39;26.08;;;11.93;;
69188;SDS011;56302;52.322;5.926;2023-02-13T04:11:09;31.67;;;12.98;;
69188;SDS011;56302;52.322;5.926;2023-02-13T04:16:17;27.87;;;11.60;;
69188;SDS011;56302;52.322;5.926;2023-02-13T04:18:51;29.00;;;12.13;;
69188;SDS011;56302;52.322;5.926;2023-02-13T04:21:18;26.08;;;12.02;;
69188;SDS011;56302;52.322;5.926;2023-02-13T04:23:44;26.30;;;12.80;;
69188;SDS011;56302;52.322;5.926;2023-02-13T04:26:12;26.42;;;11.25;;
69188;SDS011;56302;52.322;5.926;2023-02-13T04:28:41;25.00;;;10.87;;
69188;SDS011;56302;52.322;5.926;2023-02-13T04:31:06;24.27;;;11.60;;
69188;SDS011;56302;52.322;5.926;2023-02-13T04:33:32;26.07;;;12.83;;
69188;SDS011;56302;52.322;5.926;2023-02-13T04:35:57;27.30;;;12.83;;
69188;SDS011;56302;52.322;5.926;2023-02-13T04:38:23;28.97;;;13.17;;
69188;SDS011;56302;52.322;5.926;2023-02-13T04:40:48;29.75;;;12.60;;
69188;SDS011;56302;52.322;5.926;2023-02-13T04:43:14;27.77;;;12.40;;
69188;SDS011;56302;52.322;5.926;2023-02-13T04:45:39;24.73;;;11.43;;
69188;SDS011;56302;52.322;5.926;2023-02-13T04:48:05;26.20;;;11.50;;
69188;SDS011;56302;52.322;5.926;2023-02-13T04:50:31;26.40;;;11.57;;
69188;SDS011;56302;52.322;5.926;2023-02-13T04:52:57;26.05;;;12.10;;
69188;SDS011;56302;52.322;5.926;2023-02-13T04:55:23;25.97;;;11.63;;
69188;SDS011;56302;52.322;5.926;2023-02-13T04:57:53;26.33;;;11.10;;
69188;SDS011;56302;52.322;5.926;2023-02-13T05:00:24;25.60;;;11.90;;
69188;SDS011;56302;52.322;5.926;2023-02-13T05:02:52;25.80;;;11.55;;
69188;SDS011;56302;52.322;5.926;2023-02-13T05:05:18;24.17;;;11.07;;
69188;SDS011;56302;52.322;5.926;2023-02-13T05:07:44;25.25;;;11.40;;
69188;SDS011;56302;52.322;5.926;2023-02-13T05:10:10;28.58;;;11.57;;
69188;SDS011;56302;52.322;5.926;2023-02-13T05:12:36;26.27;;;11.83;;
69188;SDS011;56302;52.322;5.926;2023-02-13T05:15:03;27.65;;;12.32;;
69188;SDS011;56302;52.322;5.926;2023-02-13T05:17:29;25.50;;;11.40;;
69188;SDS011;56302;52.322;5.926;2023-02-13T05:19:55;24.70;;;11.43;;
69188;SDS011;56302;52.322;5.926;2023-02-13T05:22:20;29.23;;;12.82;;
69188;SDS011;56302;52.322;5.926;2023-02-13T05:25:04;25.10;;;11.65;;
69188;SDS011;56302;52.322;5.926;2023-02-13T05:27:30;25.83;;;11.63;;
69188;SDS011;56302;52.322;5.926;2023-02-13T05:29:55;23.17;;;11.17;;
69188;SDS011;56302;52.322;5.926;2023-02-13T05:32:21;27.08;;;11.25;;
69188;SDS011;56302;52.322;5.926;2023-02-13T05:34:46;22.67;;;10.40;;
69188;SDS011;56302;52.322;5.926;2023-02-13T05:37:12;26.00;;;11.57;;
69188;SDS011;56302;52.322;5.926;2023-02-13T05:39:37;22.67;;;10.60;;
69188;SDS011;56302;52.322;5.926;2023-02-13T05:42:03;24.45;;;11.25;;
69188;SDS011;56302;52.322;5.926;2023-02-13T05:44:29;22.87;;;11.00;;
69188;SDS011;56302;52.322;5.926;2023-02-13T05:46:55;26.45;;;11.50;;
69188;SDS011;56302;52.322;5.926;2023-02-13T05:49:20;25.33;;;11.50;;
69188;SDS011;56302;52.322;5.926;2023-02-13T05:51:46;23.33;;;10.73;;
69188;SDS011;56302;52.322;5.926;2023-02-13T05:54:13;24.52;;;10.93;;
69188;SDS011;56302;52.322;5.926;2023-02-13T05:56:38;26.60;;;10.98;;
69188;SDS011;56302;52.322;5.926;2023-02-13T05:59:04;23.87;;;10.87;;
69188;SDS011;56302;52.322;5.926;2023-02-13T06:01:30;26.90;;;10.57;;
69188;SDS011;56302;52.322;5.926;2023-02-13T06:03:55;25.37;;;11.53;;
69188;SDS011;56302;52.322;5.926;2023-02-13T06:06:21;26.83;;;11.87;;
69188;SDS011;56302;52.322;5.926;2023-02-13T06:08:47;27.55;;;11.90;;
69188;SDS011;56302;52.322;5.926;2023-02-13T06:11:12;26.37;;;11.70;;
69188;SDS011;56302;52.322;5.926;2023-02-13T06:13:38;24.02;;;10.55;;
69188;SDS011;56302;52.322;5.926;2023-02-13T06:16:07;23.88;;;10.57;;
69188;SDS011;56302;52.322;5.926;2023-02-13T06:18:34;24.58;;;10.90;;
69188;SDS011;56302;52.322;5.926;2023-02-13T06:21:00;26.42;;;12.10;;
69188;SDS011;56302;52.322;5.926;2023-02-13T06:23:26;26.77;;;12.00;;
69188;SDS011;56302;52.322;5.926;2023-02-13T06:25:52;26.20;;;11.93;;
69188;SDS011;56302;52.322;5.926;2023-02-13T06:28:17;25.27;;;12.07;;
69188;SDS011;56302;52.322;5.926;2023-02-13T06:30:43;30.15;;;11.77;;
69188;SDS011;56302;52.322;5.926;2023-02-13T06:33:08;26.97;;;12.30;;
69188;SDS011;56302;52.322;5.926;2023-02-13T06:35:34;27.13;;;11.87;;
69188;SDS011;56302;52.322;5.926;2023-02-13T06:37:59;30.30;;;12.68;;
69188;SDS011;56302;52.322;5.926;2023-02-13T06:40:25;26.40;;;12.10;;
69188;SDS011;56302;52.322;5.926;2023-02-13T06:42:50;27.77;;;12.40;;
69188;SDS011;56302;52.322;5.926;2023-02-13T06:45:16;30.33;;;12.57;;
69188;SDS011;56302;52.322;5.926;2023-02-13T06:47:42;29.40;;;12.57;;
69188;SDS011;56302;52.322;5.926;2023-02-13T06:50:09;28.45;;;11.98;;
69188;SDS011;56302;52.322;5.926;2023-02-13T06:52:36;28.73;;;12.20;;
69188;SDS011;56302;52.322;5.926;2023-02-13T06:55:01;26.42;;;11.63;;
69188;SDS011;56302;52.322;5.926;2023-02-13T06:57:27;30.67;;;13.55;;
69188;SDS011;56302;52.322;5.926;2023-02-13T06:59:56;26.33;;;11.70;;
69188;SDS011;56302;52.322;5.926;2023-02-13T07:02:23;30.70;;;12.05;;
69188;SDS011;56302;52.322;5.926;2023-02-13T07:04:48;26.47;;;12.30;;
69188;SDS011;56302;52.322;5.926;2023-02-13T07:07:14;26.38;;;12.35;;
69188;SDS011;56302;52.322;5.926;2023-02-13T07:09:39;31.77;;;13.37;;
69188;SDS011;56302;52.322;5.926;2023-02-13T07:12:05;30.58;;;11.80;;
69188;SDS011;56302;52.322;5.926;2023-02-13T07:14:31;29.67;;;11.77;;
69188;SDS011;56302;52.322;5.926;2023-02-13T07:16:56;30.45;;;12.68;;
69188;SDS011;56302;52.322;5.926;2023-02-13T07:19:22;28.20;;;12.53;;
69188;SDS011;56302;52.322;5.926;2023-02-13T07:21:48;33.30;;;13.73;;
69188;SDS011;56302;52.322;5.926;2023-02-13T07:24:13;27.25;;;12.63;;
69188;SDS011;56302;52.322;5.926;2023-02-13T07:26:39;27.90;;;12.63;;
69188;SDS011;56302;52.322;5.926;2023-02-13T07:29:04;30.60;;;13.37;;
69188;SDS011;56302;52.322;5.926;2023-02-13T07:31:31;29.23;;;12.47;;
69188;SDS011;56302;52.322;5.926;2023-02-13T07:34:00;31.38;;;13.10;;
69188;SDS011;56302;52.322;5.926;2023-02-13T07:36:26;31.13;;;13.07;;
69188;SDS011;56302;52.322;5.926;2023-02-13T07:38:52;34.40;;;13.37;;
69188;SDS011;56302;52.322;5.926;2023-02-13T07:41:17;31.20;;;13.10;;
69188;SDS011;56302;52.322;5.926;2023-02-13T07:43:43;32.40;;;13.77;;
69188;SDS011;56302;52.322;5.926;2023-02-13T07:46:09;30.97;;;13.37;;
69188;SDS011;56302;52.322;5.926;2023-02-13T07:48:35;34.23;;;13.77;;
69188;SDS011;56302;52.322;5.926;2023-02-13T07:51:01;30.60;;;13.60;;
69188;SDS011;56302;52.322;5.926;2023-02-13T07:53:28;30.87;;;12.97;;
69188;SDS011;56302;52.322;5.926;2023-02-13T07:55:53;30.80;;;13.73;;
69188;SDS011;56302;52.322;5.926;2023-02-13T07:58:19;29.47;;;13.33;;
69188;SDS011;56302;52.322;5.926;2023-02-13T08:00:45;33.75;;;13.30;;
69188;SDS011;56302;52.322;5.926;2023-02-13T08:03:10;29.20;;;12.90;;
69188;SDS011;56302;52.322;5.926;2023-02-13T08:05:36;33.50;;;14.10;;
69188;SDS011;56302;52.322;5.926;2023-02-13T08:08:02;32.97;;;13.48;;
69188;SDS011;56302;52.322;5.926;2023-02-13T08:10:28;33.17;;;14.15;;
69188;SDS011;56302;52.322;5.926;2023-02-13T08:13:12;33.80;;;14.70;;
69188;SDS011;56302;52.322;5.926;2023-02-13T08:15:39;34.30;;;15.38;;
69188;SDS011;56302;52.322;5.926;2023-02-13T08:18:04;36.50;;;16.15;;
69188;SDS011;56302;52.322;5.926;2023-02-13T08:20:30;39.87;;;16.53;;
69188;SDS011;56302;52.322;5.926;2023-02-13T08:23:05;35.78;;;15.85;;
69188;SDS011;56302;52.322;5.926;2023-02-13T08:25:33;36.90;;;15.82;;
69188;SDS011;56302;52.322;5.926;2023-02-13T08:27:59;37.40;;;16.13;;
69188;SDS011;56302;52.322;5.926;2023-02-13T08:30:24;41.63;;;17.98;;
69188;SDS011;56302;52.322;5.926;2023-02-13T08:32:50;37.73;;;16.07;;
69188;SDS011;56302;52.322;5.926;2023-02-13T08:35:16;36.55;;;15.80;;
69188;SDS011;56302;52.322;5.926;2023-02-13T08:37:41;37.23;;;16.43;;
69188;SDS011;56302;52.322;5.926;2023-02-13T08:40:07;39.37;;;17.30;;
69188;SDS011;56302;52.322;5.926;2023-02-13T08:42:36;39.67;;;16.35;;
69188;SDS011;56302;52.322;5.926;2023-02-13T08:45:03;39.55;;;16.48;;
69188;SDS011;56302;52.322;5.926;2023-02-13T08:47:29;36.22;;;16.10;;
69188;SDS011;56302;52.322;5.926;2023-02-13T08:49:55;37.57;;;15.73;;
69188;SDS011;56302;52.322;5.926;2023-02-13T08:52:21;37.65;;;14.73;;
69188;SDS011;56302;52.322;5.926;2023-02-13T08:54:46;39.70;;;16.67;;
69188;SDS011;56302;52.322;5.926;2023-02-13T08:57:12;38.83;;;15.07;;
69188;SDS011;56302;52.322;5.926;2023-02-13T08:59:37;35.75;;;15.23;;
69188;SDS011;56302;52.322;5.926;2023-02-13T09:02:03;37.87;;;15.43;;
69188;SDS011;56302;52.322;5.926;2023-02-13T09:04:28;39.07;;;15.60;;
69188;SDS011;56302;52.322;5.926;2023-02-13T09:06:54;39.53;;;16.80;;
69188;SDS011;56302;52.322;5.926;2023-02-13T09:09:20;42.30;;;16.13;;
69188;SDS011;56302;52.322;5.926;2023-02-13T09:11:45;37.22;;;15.52;;
69188;SDS011;56302;52.322;5.926;2023-02-13T09:14:11;38.17;;;16.83;;
69188;SDS011;56302;52.322;5.926;2023-02-13T09:16:37;34.45;;;14.93;;
69188;SDS011;56302;52.322;5.926;2023-02-13T09:19:02;37.85;;;16.05;;
69188;SDS011;56302;52.322;5.926;2023-02-13T09:21:28;37.13;;;16.20;;
69188;SDS011;56302;52.322;5.926;2023-02-13T09:23:55;38.58;;;16.17;;
69188;SDS011;56302;52.322;5.926;2023-02-13T09:26:20;45.00;;;17.20;;
69188;SDS011;56302;52.322;5.926;2023-02-13T09:28:46;40.88;;;16.92;;
69188;SDS011;56302;52.322;5.926;2023-02-13T09:31:13;37.37;;;17.10;;
69188;SDS011;56302;52.322;5.926;2023-02-13T09:33:40;44.97;;;17.52;;
69188;SDS011;56302;52.322;5.926;2023-02-13T09:36:07;35.85;;;16.88;;
69188;SDS011;56302;52.322;5.926;2023-02-13T09:38:34;44.87;;;17.00;;
69188;SDS011;56302;52.322;5.926;2023-02-13T09:41:10;37.78;;;17.35;;
69188;SDS011;56302;52.322;5.926;2023-02-13T09:43:49;40.65;;;17.65;;
69188;SDS011;56302;52.322;5.926;2023-02-13T09:46:22;39.13;;;17.43;;
69188;SDS011;56302;52.322;5.926;2023-02-13T09:48:50;44.55;;;18.63;;
69188;SDS011;56302;52.322;5.926;2023-02-13T09:51:19;40.15;;;18.23;;
69188;SDS011;56302;52.322;5.926;2023-02-13T09:53:49;44.97;;;18.90;;
69188;SDS011;56302;52.322;5.926;2023-02-13T10:02:36;41.22;;;18.85;;
69188;SDS011;56302;52.322;5.926;2023-02-13T10:05:30;38.63;;;18.80;;
69188;SDS011;56302;52.322;5.926;2023-02-13T10:10:57;42.35;;;19.60;;
69188;SDS011;56302;52.322;5.926;2023-02-13T10:13:49;37.30;;;17.70;;
69188;SDS011;56302;52.322;5.926;2023-02-13T10:16:37;40.17;;;19.75;;
69188;SDS011;56302;52.322;5.926;2023-02-13T10:22:04;40.75;;;19.35;;
69188;SDS011;56302;52.322;5.926;2023-02-13T10:24:41;36.97;;;18.63;;
69188;SDS011;56302;52.322;5.926;2023-02-13T10:27:36;37.80;;;18.50;;
69188;SDS011;56302;52.322;5.926;2023-02-13T10:30:24;41.30;;;19.13;;
69188;SDS011;56302;52.322;5.926;2023-02-13T10:35:40;36.55;;;18.15;;
69188;SDS011;56302;52.322;5.926;2023-02-13T10:38:14;38.42;;;18.48;;
69188;SDS011;56302;52.322;5.926;2023-02-13T10:40:44;35.50;;;18.23;;
69188;SDS011;56302;52.322;5.926;2023-02-13T10:43:18;37.65;;;18.77;;
69188;SDS011;56302;52.322;5.926;2023-02-13T10:48:46;35.13;;;16.60;;
69188;SDS011;56302;52.322;5.926;2023-02-13T10:57:23;35.30;;;17.42;;
69188;SDS011;56302;52.322;5.926;2023-02-13T11:00:24;35.13;;;16.65;;
69188;SDS011;56302;52.322;5.926;2023-02-13T11:02:55;34.63;;;16.88;;
69188;SDS011;56302;52.322;5.926;2023-02-13T11:05:24;32.97;;;16.33;;
69188;SDS011;56302;52.322;5.926;2023-02-13T11:07:55;31.83;;;15.73;;
69188;SDS011;56302;52.322;5.926;2023-02-13T11:10:22;35.00;;;16.98;;
69188;SDS011;56302;52.322;5.926;2023-02-13T11:12:50;35.63;;;17.20;;
69188;SDS011;56302;52.322;5.926;2023-02-13T11:17:47;33.80;;;17.75;;
69188;SDS011;56302;52.322;5.926;2023-02-13T11:20:25;33.97;;;16.60;;
69188;SDS011;56302;52.322;5.926;2023-02-13T11:22:56;34.88;;;16.65;;
69188;SDS011;56302;52.322;5.926;2023-02-13T11:25:54;32.42;;;16.27;;
69188;SDS011;56302;52.322;5.926;2023-02-13T11:28:25;32.47;;;15.55;;
69188;SDS011;56302;52.322;5.926;2023-02-13T11:30:53;37.60;;;17.23;;
69188;SDS011;56302;52.322;5.926;2023-02-13T11:33:37;35.10;;;17.23;;
69188;SDS011;56302;52.322;5.926;2023-02-13T11:36:08;32.40;;;16.52;;
69188;SDS011;56302;52.322;5.926;2023-02-13T11:38:38;34.28;;;16.80;;
69188;SDS011;56302;52.322;5.926;2023-02-13T11:43:46;34.03;;;17.30;;
69188;SDS011;56302;52.322;5.926;2023-02-13T11:46:19;38.35;;;17.67;;
69188;SDS011;56302;52.322;5.926;2023-02-13T11:51:40;33.67;;;17.70;;
69188;SDS011;56302;52.322;5.926;2023-02-13T11:54:20;34.80;;;17.77;;
69188;SDS011;56302;52.322;5.926;2023-02-13T11:57:01;34.53;;;16.92;;
69188;SDS011;56302;52.322;5.926;2023-02-13T11:59:42;34.70;;;17.60;;
69188;SDS011;56302;52.322;5.926;2023-02-13T12:02:51;33.35;;;17.42;;
69188;SDS011;56302;52.322;5.926;2023-02-13T12:05:16;33.60;;;16.83;;
69188;SDS011;56302;52.322;5.926;2023-02-13T12:07:44;39.20;;;19.17;;
69188;SDS011;56302;52.322;5.926;2023-02-13T12:12:47;36.60;;;18.30;;
69188;SDS011;56302;52.322;5.926;2023-02-13T12:15:36;35.67;;;17.48;;
69188;SDS011;56302;52.322;5.926;2023-02-13T12:23:32;34.53;;;17.10;;
69188;SDS011;56302;52.322;5.926;2023-02-13T12:36:57;36.25;;;17.02;;
69188;SDS011;56302;52.322;5.926;2023-02-13T12:39:39;33.80;;;16.55;;
69188;SDS011;56302;52.322;5.926;2023-02-13T12:45:09;36.55;;;17.48;;
69188;SDS011;56302;52.322;5.926;2023-02-13T12:53:14;33.58;;;17.10;;
69188;SDS011;56302;52.322;5.926;2023-02-13T12:59:02;34.03;;;16.98;;
69188;SDS011;56302;52.322;5.926;2023-02-13T13:07:32;36.20;;;18.83;;
69188;SDS011;56302;52.322;5.926;2023-02-13T13:10:38;32.97;;;17.70;;
69188;SDS011;56302;52.322;5.926;2023-02-13T13:15:59;34.58;;;16.55;;
69188;SDS011;56302;52.322;5.926;2023-02-13T13:21:16;27.17;;;15.48;;
69188;SDS011;56302;52.322;5.926;2023-02-13T13:26:46;37.85;;;19.40;;
69188;SDS011;56302;52.322;5.926;2023-02-13T13:29:16;32.63;;;17.95;;
69188;SDS011;56302;52.322;5.926;2023-02-13T13:31:51;30.90;;;15.45;;
69188;SDS011;56302;52.322;5.926;2023-02-13T13:34:22;35.67;;;19.35;;
69188;SDS011;56302;52.322;5.926;2023-02-13T13:36:55;36.93;;;20.53;;
69188;SDS011;56302;52.322;5.926;2023-02-13T13:42:24;38.45;;;21.05;;
69188;SDS011;56302;52.322;5.926;2023-02-13T13:50:55;37.13;;;21.43;;
69188;SDS011;56302;52.322;5.926;2023-02-13T13:53:21;35.45;;;19.70;;
69188;SDS011;56302;52.322;5.926;2023-02-13T13:58:41;37.22;;;21.17;;
69188;SDS011;56302;52.322;5.926;2023-02-13T14:01:27;35.88;;;19.52;;
69188;SDS011;56302;52.322;5.926;2023-02-13T14:03:58;38.07;;;21.47;;
69188;SDS011;56302;52.322;5.926;2023-02-13T14:06:25;32.33;;;18.42;;
69188;SDS011;56302;52.322;5.926;2023-02-13T14:08:54;35.83;;;20.88;;
69188;SDS011;56302;52.322;5.926;2023-02-13T14:13:53;39.00;;;20.77;;
69188;SDS011;56302;52.322;5.926;2023-02-13T14:16:38;33.60;;;17.93;;
69188;SDS011;56302;52.322;5.926;2023-02-13T14:19:05;35.63;;;19.80;;
69188;SDS011;56302;52.322;5.926;2023-02-13T14:21:47;35.47;;;20.00;;
69188;SDS011;56302;52.322;5.926;2023-02-13T14:24:13;37.90;;;20.27;;
69188;SDS011;56302;52.322;5.926;2023-02-13T14:26:41;34.33;;;19.33;;
69188;SDS011;56302;52.322;5.926;2023-02-13T14:31:36;29.80;;;17.98;;
69188;SDS011;56302;52.322;5.926;2023-02-13T14:34:18;33.63;;;19.73;;
69188;SDS011;56302;52.322;5.926;2023-02-13T14:39:35;34.53;;;18.23;;
69188;SDS011;56302;52.322;5.926;2023-02-13T14:42:02;37.03;;;20.17;;
69188;SDS011;56302;52.322;5.926;2023-02-13T14:47:01;34.70;;;19.92;;
69188;SDS011;56302;52.322;5.926;2023-02-13T14:49:31;36.92;;;20.35;;
69188;SDS011;56302;52.322;5.926;2023-02-13T14:52:02;33.27;;;18.63;;
69188;SDS011;56302;52.322;5.926;2023-02-13T14:54:33;34.83;;;19.52;;
69188;SDS011;56302;52.322;5.926;2023-02-13T14:57:16;36.53;;;20.48;;
69188;SDS011;56302;52.322;5.926;2023-02-13T14:59:50;37.80;;;20.13;;
69188;SDS011;56302;52.322;5.926;2023-02-13T15:02:23;32.92;;;20.10;;
69188;SDS011;56302;52.322;5.926;2023-02-13T15:04:57;35.27;;;19.07;;
69188;SDS011;56302;52.322;5.926;2023-02-13T15:07:27;33.05;;;18.88;;
69188;SDS011;56302;52.322;5.926;2023-02-13T15:10:00;36.25;;;19.38;;
69188;SDS011;56302;52.322;5.926;2023-02-13T15:12:33;33.08;;;19.38;;
69188;SDS011;56302;52.322;5.926;2023-02-13T15:15:00;31.85;;;18.55;;
69188;SDS011;56302;52.322;5.926;2023-02-13T15:17:28;35.03;;;20.10;;
69188;SDS011;56302;52.322;5.926;2023-02-13T15:20:23;33.20;;;18.92;;
69188;SDS011;56302;52.322;5.926;2023-02-13T15:22:49;34.85;;;19.58;;
69188;SDS011;56302;52.322;5.926;2023-02-13T15:27:52;36.22;;;19.00;;
69188;SDS011;56302;52.322;5.926;2023-02-13T15:30:21;36.53;;;20.00;;
69188;SDS011;56302;52.322;5.926;2023-02-13T15:33:01;34.30;;;18.75;;
69188;SDS011;56302;52.322;5.926;2023-02-13T15:35:53;35.53;;;20.52;;
69188;SDS011;56302;52.322;5.926;2023-02-13T15:38:25;35.55;;;19.27;;
69188;SDS011;56302;52.322;5.926;2023-02-13T15:40:52;35.78;;;19.27;;
69188;SDS011;56302;52.322;5.926;2023-02-13T15:43:29;37.60;;;20.63;;
69188;SDS011;56302;52.322;5.926;2023-02-13T15:46:05;38.50;;;20.63;;
69188;SDS011;56302;52.322;5.926;2023-02-13T15:48:42;37.53;;;20.08;;
69188;SDS011;56302;52.322;5.926;2023-02-13T15:51:08;37.55;;;21.25;;
69188;SDS011;56302;52.322;5.926;2023-02-13T15:53:33;36.40;;;20.53;;
69188;SDS011;56302;52.322;5.926;2023-02-13T15:56:00;36.13;;;21.30;;
69188;SDS011;56302;52.322;5.926;2023-02-13T15:58:29;37.83;;;21.88;;
69188;SDS011;56302;52.322;5.926;2023-02-13T16:01:02;39.83;;;20.58;;
69188;SDS011;56302;52.322;5.926;2023-02-13T16:03:30;37.03;;;21.48;;
69188;SDS011;56302;52.322;5.926;2023-02-13T16:05:57;40.07;;;22.37;;
69188;SDS011;56302;52.322;5.926;2023-02-13T16:08:25;38.85;;;21.55;;
69188;SDS011;56302;52.322;5.926;2023-02-13T16:11:08;38.60;;;20.65;;
69188;SDS011;56302;52.322;5.926;2023-02-13T16:13:33;39.00;;;20.65;;
69188;SDS011;56302;52.322;5.926;2023-02-13T16:15:59;40.60;;;21.10;;
69188;SDS011;56302;52.322;5.926;2023-02-13T16:18:27;40.70;;;21.65;;
69188;SDS011;56302;52.322;5.926;2023-02-13T16:20:53;41.13;;;21.93;;
69188;SDS011;56302;52.322;5.926;2023-02-13T16:23:20;37.17;;;20.60;;
69188;SDS011;56302;52.322;5.926;2023-02-13T16:25:46;38.78;;;20.85;;
69188;SDS011;56302;52.322;5.926;2023-02-13T16:28:16;37.73;;;20.33;;
69188;SDS011;56302;52.322;5.926;2023-02-13T16:30:45;40.05;;;20.23;;
69188;SDS011;56302;52.322;5.926;2023-02-13T16:35:53;36.92;;;20.20;;
69188;SDS011;56302;52.322;5.926;2023-02-13T16:41:27;34.87;;;19.90;;
69188;SDS011;56302;52.322;5.926;2023-02-13T16:43:58;33.20;;;18.65;;
69188;SDS011;56302;52.322;5.926;2023-02-13T16:46:52;33.75;;;19.30;;
69188;SDS011;56302;52.322;5.926;2023-02-13T16:49:21;32.92;;;18.95;;
69188;SDS011;56302;52.322;5.926;2023-02-13T16:54:52;35.13;;;18.27;;
69188;SDS011;56302;52.322;5.926;2023-02-13T16:57:22;31.08;;;17.92;;
69188;SDS011;56302;52.322;5.926;2023-02-13T17:02:35;31.88;;;17.95;;
69188;SDS011;56302;52.322;5.926;2023-02-13T17:07:38;34.63;;;18.43;;
69188;SDS011;56302;52.322;5.926;2023-02-13T17:10:09;35.35;;;17.98;;
69188;SDS011;56302;52.322;5.926;2023-02-13T17:15:33;30.23;;;16.45;;
69188;SDS011;56302;52.322;5.926;2023-02-13T17:17:58;33.30;;;18.10;;
69188;SDS011;56302;52.322;5.926;2023-02-13T17:20:25;32.30;;;17.73;;